map of NSI home
NSI - Airport
Location
City:  Yaoundé, Centre, Cameroon
Name:Yaoundé Nsimalen International Airport
ICAO:FKYS
IATA:NSI

Details
Type:Airport (Aerodrome, Airfield)
Use:Public/Civil, International (customs port of entry)
Latitude:3°43'21"N (3.722556)
Longitude:11°33'12"E (11.553269)
Datum:WGS 1984
Elevation:2278 ft (694 m)
Variation:0.60°W (WMM2015 magnetic declination)
0.12° annual change
Runways:1
Longest:11155 × 148 ft (3400 × 45 m), paved

Time
Time Zone:UTC+1
Local Time:

Weather
METAR:FKYS 251200Z /////KT 9999 FEW012 BKN020 25/22 Q1016 NOSIG
TAF:FKYS 251100Z 2512/2612 VRB05KT 9999 BKN016
TEMPO 2514/2522 TS BKN013 FEW020CB PROB30 2516/2521 3000 TSRA
BECMG 2521/2523 BKN006 FEW020CB
BECMG 2606/2608 BKN016

Related Locations
Nearby:
Farthest:CIS: 12214 mi / 19657 km
Kanton Island (Canton Island, Abariringa Island) [Canton Island Airport], P, KI

Find:

   beyond  
but within

Other Information
Maps:
NOTAMs:
Links:
Sources:

  
  • flag of Cameroon
  

Sectional Chart

Flight Planning
at skyvector.com

Satellite Image

Google Maps Satellite view

 

Copyright © 2004-2018 Karl L. Swartz. All rights reserved.
The Great Circle Mapper name and logo are trademarks of the Great Circle Mapper.
All other trademarks mentioned herein belong to their respective owners.
Please see credits for attibutions and further copyright information.

  Follow gcmap on Facebook Follow gcmap on Twitter Follow gcmap on Google+ GCmap on LinkedIn

hCard Microformat

Geo Microformat